»·PEaware :: N2822D 65S-CYCZ

N2822D :: 65S-CYCZ

FLIGHT INFORMATION

Flight Status: Arrived
Operator: Privately registered:
United States
More flights under this callsign
Pilot: Wayne R. (17783)
Aircraft: CESSNA 310
(C310)
More flights by this aircraft type
Origin: 65S Boundary Co
United States
Destination: CYCZ Fairmont Hot Springs
Canada
More flights between these airports :: More routes between these airports
Route:
File this flight plan on PilotEdge
Remarks:
Altitude:
(Current/Filed)
9,500ft
Speed:
(Current/Filed)
165kts
Departed: 27-Dec-20 07:19 PM
Arrived: 27-Dec-20 07:58 PM
Distance/Time
Traveled:
97nm/0:39
Distance/Time
To Go:
Arrived

Flight Plot

Page will automatically refresh every two minutes.

Flight plan parsing failed; only flown route is shown


Map Options




Map Legend


Flown Route
Filed Route
Departure Airport
Arrival Airport
Navaid (VOR, NDB)
Fix

Horizontal Profiles

Position Reports

Time Latitude Longitude Heading Altitude Ground
Speed
27-Dec-20 19:17 48.634420 -116.353002 18 8145ft 159kts
27-Dec-20 19:18 48.676481 -116.328919 18 8568ft 162kts
27-Dec-20 19:19 48.720151 -116.308441 11 8892ft 164kts
27-Dec-20 19:20 48.764492 -116.290488 12 9188ft 166kts
27-Dec-20 19:21 48.809128 -116.272197 12 9448ft 167kts
27-Dec-20 19:22 48.854590 -116.253261 12 9596ft 174kts
27-Dec-20 19:23 48.901951 -116.233477 12 9600ft 179kts
27-Dec-20 19:24 48.950319 -116.212905 12 9632ft 181kts
27-Dec-20 19:25 48.999215 -116.192371 11 9676ft 182kts
27-Dec-20 19:26 49.048763 -116.174531 8 9729ft 183kts
27-Dec-20 19:27 49.098902 -116.161497 5 9786ft 182kts
27-Dec-20 19:28 49.149513 -116.154249 0 9839ft 182kts
27-Dec-20 19:29 49.200023 -116.152210 357 9887ft 182kts
27-Dec-20 19:30 49.250305 -116.149775 25 9921ft 185kts
27-Dec-20 19:31 49.297863 -116.123126 2 9925ft 183kts
27-Dec-20 19:32 49.348756 -116.113800 5 9935ft 184kts
27-Dec-20 19:33 49.399297 -116.103622 5 10057ft 183kts
27-Dec-20 19:34 49.449764 -116.093348 5 10164ft 183kts
27-Dec-20 19:35 49.500314 -116.089009 0 10264ft 182kts
27-Dec-20 19:36 49.550993 -116.086894 356 10338ft 182kts
27-Dec-20 19:37 49.596034 -116.051668 38 9966ft 189kts
27-Dec-20 19:38 49.635705 -115.999997 37 9387ft 186kts
27-Dec-20 19:39 49.673172 -115.946140 44 9029ft 179kts
27-Dec-20 19:40 49.712091 -115.897112 34 8703ft 179kts
27-Dec-20 19:42 49.751954 -115.850093 37 8402ft 180kts
27-Dec-20 19:43 49.791191 -115.802560 36 8120ft 178kts
27-Dec-20 19:44 49.831860 -115.759351 16 7805ft 175kts
27-Dec-20 19:45 49.877123 -115.766838 346 7905ft 163kts
27-Dec-20 19:46 49.922258 -115.776488 349 7968ft 164kts
27-Dec-20 19:47 49.967092 -115.785989 349 7680ft 161kts
27-Dec-20 19:48 50.010622 -115.797184 348 8032ft 161kts
27-Dec-20 19:49 50.052625 -115.807153 348 7517ft 148kts
27-Dec-20 19:50 50.093858 -115.817059 348 6908ft 149kts
27-Dec-20 19:51 50.134659 -115.827094 348 6419ft 148kts
27-Dec-20 19:52 50.174833 -115.833851 349 5933ft 146kts
27-Dec-20 19:53 50.211311 -115.842735 352 4903ft 113kts
27-Dec-20 19:54 50.239854 -115.854199 343 3521ft 104kts
27-Dec-20 19:55 50.266703 -115.863357 347 2786ft 96kts
27-Dec-20 19:56 50.294176 -115.864455 350 3115ft 105kts
27-Dec-20 19:57 50.323505 -115.871936 344 2674ft 98kts
27-Dec-20 19:57 50.331086 -115.873401 174 2655ft 33kts
27-Dec-20 19:58 50.325166 -115.873638 84 2680ft 5kts
27-Dec-20 20:00 50.325182 -115.873253 152 2674ft 0kts
27-Dec-20 20:01 50.325182 -115.873253 152 2674ft 0kts
27-Dec-20 20:01 50.325183 -115.873252 152 2674ft 0kts
27-Dec-20 20:02 50.325183 -115.873252 152 2674ft 0kts
27-Dec-20 20:04 50.325183 -115.873252 152 2674ft 0kts
27-Dec-20 20:04 50.325183 -115.873252 152 2674ft 0kts
27-Dec-20 20:05 50.325183 -115.873252 152 2674ft 0kts
27-Dec-20 20:06 50.325183 -115.873252 152 2674ft 0kts
27-Dec-20 20:07 50.325183 -115.873252 152 2674ft 0kts
27-Dec-20 20:08 50.325183 -115.873252 152 2674ft 0kts
27-Dec-20 20:09 50.325183 -115.873252 152 2674ft 0kts

Navigation Log

Ident Type
Flight plan parsing failed, navigation log unavailable